createdAt,value
2022-09-01T00:02:08.613Z,102263.84
2022-09-01T00:05:32.838Z,102265.97
2022-09-01T00:08:59.257Z,102263.75
2022-09-01T00:12:22.732Z,102266.13
2022-09-01T00:15:45.076Z,102269.97
2022-09-01T00:19:07.615Z,102274.81
2022-09-01T00:22:29.765Z,102276.75
2022-09-01T00:25:52.924Z,102274.06
2022-09-01T00:29:14.938Z,102269.56
2022-09-01T00:32:36.813Z,102274.16
2022-09-01T00:35:58.791Z,102262.72
2022-09-01T00:39:20.588Z,102267.44
2022-09-01T00:42:44.605Z,102269.38
2022-09-01T00:46:09.021Z,102266.81
2022-09-01T00:49:36.153Z,102264.34
2022-09-01T00:52:57.989Z,102264.34
2022-09-01T00:56:19.759Z,102254.72
2022-09-01T00:59:48.122Z,102257.59
2022-09-01T01:03:10.723Z,102253.22
2022-09-01T01:06:33.246Z,102259.44
2022-09-01T01:09:55.550Z,102259.53
2022-09-01T01:13:18.470Z,102250.56
2022-09-01T01:16:44.766Z,102253.22
2022-09-01T01:20:28.058Z,102240.06
2022-09-01T01:23:58.669Z,102241.25
2022-09-01T01:27:22.008Z,102236.00
2022-09-01T01:30:51.160Z,102239.63
2022-09-01T01:34:12.889Z,102233.69
2022-09-01T01:37:35.736Z,102231.22
2022-09-01T01:40:57.686Z,102237.75
2022-09-01T01:44:27.935Z,102244.16
2022-09-01T01:47:54.529Z,102243.53
2022-09-01T01:51:21.290Z,102241.03
2022-09-01T01:54:43.788Z,102236.88
2022-09-01T01:58:05.590Z,102239.66
2022-09-01T02:01:32.152Z,102239.75
2022-09-01T02:04:55.041Z,102241.81
2022-09-01T02:08:20.992Z,102238.47
2022-09-01T02:11:44.009Z,102232.47
2022-09-01T02:15:07.354Z,102239.00
2022-09-01T02:18:35.389Z,102238.38
2022-09-01T02:22:00.117Z,102237.84
2022-09-01T02:25:22.490Z,102239.94
2022-09-01T02:28:55.515Z,102246.44
2022-09-01T02:32:22.177Z,102237.91
2022-09-01T02:35:45.558Z,102230.94
2022-09-01T02:39:08.153Z,102228.47
2022-09-01T02:42:30.235Z,102228.56
2022-09-01T02:45:57.694Z,102222.69
2022-09-01T02:49:28.281Z,102230.03
2022-09-01T02:52:53.862Z,102229.47
2022-09-01T02:56:18.564Z,102228.19
2022-09-01T02:59:43.926Z,102225.72
2022-09-01T03:03:08.210Z,102228.59
2022-09-01T03:06:34.529Z,102220.78
2022-09-01T03:09:57.936Z,102222.91
2022-09-01T03:13:23.728Z,102228.47
2022-09-01T03:16:45.853Z,102226.84
2022-09-01T03:20:08.580Z,102228.00
2022-09-01T03:23:33.289Z,102227.25
2022-09-01T03:26:56.871Z,102224.88
2022-09-01T03:30:20.303Z,102227.06
2022-09-01T03:33:43.114Z,102223.84
2022-09-01T03:37:13.634Z,102215.22
2022-09-01T03:40:37.508Z,102218.16
2022-09-01T03:44:00.877Z,102217.50
2022-09-01T03:47:26.185Z,102219.50
2022-09-01T03:50:48.087Z,102218.00
2022-09-01T03:54:10.110Z,102228.75
2022-09-01T03:57:32.617Z,102235.16
2022-09-01T04:01:00.828Z,102236.09
2022-09-01T04:04:22.643Z,102232.56
2022-09-01T04:07:48.640Z,102228.31
2022-09-01T04:11:16.459Z,102229.25
2022-09-01T04:14:38.706Z,102232.00
2022-09-01T04:18:10.818Z,102228.50
2022-09-01T04:21:33.422Z,102226.13
2022-09-01T04:24:56.243Z,102229.81
2022-09-01T04:28:24.761Z,102214.00
2022-09-01T04:31:48.798Z,102221.16
2022-09-01T04:35:16.930Z,102218.69
2022-09-01T04:38:39.182Z,102222.53
2022-09-01T04:42:01.128Z,102221.84
2022-09-01T04:45:27.935Z,102222.03
2022-09-01T04:48:54.476Z,102222.03
2022-09-01T04:52:17.762Z,102219.25
2022-09-01T04:55:41.198Z,102224.69
2022-09-01T04:59:04.074Z,102227.38
2022-09-01T05:02:28.166Z,102224.41
2022-09-01T05:05:49.788Z,102230.41
2022-09-01T05:09:14.441Z,102231.72
2022-09-01T05:13:09.894Z,102220.22
2022-09-01T05:16:32.589Z,102216.28
2022-09-01T05:19:57.004Z,102216.00
2022-09-01T05:23:20.110Z,102208.38
2022-09-01T05:26:44.298Z,102210.44
2022-09-01T05:30:08.620Z,102214.44
2022-09-01T05:33:30.225Z,102219.19
2022-09-01T05:36:52.994Z,102228.78
2022-09-01T05:40:16.365Z,102231.34
2022-09-01T05:43:46.347Z,102221.16
2022-09-01T05:47:09.812Z,102231.41
2022-09-01T05:50:40.686Z,102233.38
2022-09-01T05:54:05.002Z,102226.56
2022-09-01T05:57:36.595Z,102234.72
2022-09-01T06:01:00.775Z,102240.88
2022-09-01T06:04:23.498Z,102239.09
2022-09-01T06:07:47.279Z,102239.00
2022-09-01T06:11:12.590Z,102238.03
2022-09-01T06:14:35.127Z,102239.13
2022-09-01T06:17:58.856Z,102238.50
2022-09-01T06:21:24.764Z,102224.47
2022-09-01T06:24:54.543Z,102236.97
2022-09-01T06:28:23.915Z,102233.53
2022-09-01T06:31:51.843Z,102239.91
2022-09-01T06:35:18.155Z,102241.81
2022-09-01T06:38:42.681Z,102233.03
2022-09-01T06:42:06.368Z,102238.34
2022-09-01T06:45:43.618Z,102236.50
2022-09-01T06:49:05.756Z,102242.03
2022-09-01T06:53:32.157Z,102236.63
2022-09-01T06:56:13.653Z,102242.88
2022-09-01T06:59:35.867Z,102243.00
2022-09-01T07:02:59.995Z,102247.69
2022-09-01T07:14:29.850Z,102257.50
2022-09-01T07:17:54.119Z,102252.19
2022-09-01T07:25:12.154Z,102238.94
2022-09-01T07:28:47.885Z,102245.88
2022-09-01T07:39:55.682Z,102243.03
2022-09-01T07:43:40.008Z,102252.41
2022-09-01T07:47:52.498Z,102245.03
2022-09-01T07:51:35.736Z,102252.94
2022-09-01T07:54:48.891Z,102253.38
2022-09-01T07:58:10.678Z,102262.50
2022-09-01T08:01:34.233Z,102253.41
2022-09-01T08:04:57.491Z,102257.63
2022-09-01T08:08:20.000Z,102258.53
2022-09-01T08:12:01.669Z,102262.13
2022-09-01T08:16:06.986Z,102261.94
2022-09-01T08:19:16.338Z,102256.34
2022-09-01T08:23:03.423Z,102256.69
2022-09-01T08:26:28.521Z,102254.75
2022-09-01T08:29:50.416Z,102246.59
2022-09-01T08:33:13.945Z,102254.59
2022-09-01T08:36:38.940Z,102244.97
2022-09-01T08:40:04.044Z,102247.81
2022-09-01T08:43:39.306Z,102258.88
2022-09-01T08:47:06.651Z,102250.13
2022-09-01T08:50:28.874Z,102253.81
2022-09-01T08:54:29.667Z,102250.41
2022-09-01T08:57:59.793Z,102244.31
2022-09-01T09:01:32.357Z,102239.78
2022-09-01T09:05:15.589Z,102239.78
2022-09-01T09:08:52.441Z,102236.22
2022-09-01T09:12:51.383Z,102242.59
2022-09-01T09:16:21.836Z,102239.38
2022-09-01T09:19:45.765Z,102224.19
2022-09-01T09:23:18.328Z,102237.38
2022-09-01T09:26:43.389Z,102232.97
2022-09-01T09:30:09.729Z,102238.78
2022-09-01T09:33:55.497Z,102241.75
2022-09-01T09:37:29.046Z,102229.25
2022-09-01T09:44:45.246Z,102225.75
2022-09-01T09:48:11.104Z,102225.19
2022-09-01T09:51:34.849Z,102222.47
2022-09-01T09:55:04.606Z,102228.81
2022-09-01T09:58:30.509Z,102212.31
2022-09-01T10:01:53.359Z,102222.66
2022-09-01T10:05:33.189Z,102217.88
2022-09-01T10:08:56.739Z,102217.53
2022-09-01T10:12:19.300Z,102216.63
2022-09-01T10:15:44.880Z,102214.22
2022-09-01T10:19:12.680Z,102211.91
2022-09-01T10:22:36.197Z,102212.81
2022-09-01T10:26:06.020Z,102206.69
2022-09-01T10:29:35.242Z,102208.09
2022-09-01T10:33:15.569Z,102211.63
2022-09-01T10:36:47.007Z,102202.38
2022-09-01T10:40:25.652Z,102215.88
2022-09-01T10:43:54.005Z,102218.63
2022-09-01T10:47:29.967Z,102224.03
2022-09-01T10:50:53.687Z,102225.34
2022-09-01T10:54:58.331Z,102216.94
2022-09-01T11:02:26.891Z,102218.34
2022-09-01T11:06:12.293Z,102211.63
2022-09-01T11:09:38.044Z,102203.16
2022-09-01T11:13:25.829Z,102198.25
2022-09-01T11:17:13.476Z,102200.84
2022-09-01T11:20:40.079Z,102198.25
2022-09-01T11:24:44.244Z,102186.81
2022-09-01T11:28:37.859Z,102189.34
2022-09-01T11:32:00.832Z,102186.88
2022-09-01T11:35:26.565Z,102203.09
2022-09-01T11:38:53.908Z,102198.53
2022-09-01T11:42:21.143Z,102196.69
2022-09-01T11:45:52.426Z,102192.97
2022-09-01T11:49:32.359Z,102194.06
2022-09-01T11:52:59.126Z,102191.28
2022-09-01T11:56:27.479Z,102189.31
2022-09-01T11:59:49.420Z,102194.66
2022-09-01T12:03:22.673Z,102197.44
2022-09-01T12:06:54.164Z,102192.25
2022-09-01T12:10:21.164Z,102187.06
2022-09-01T12:13:57.796Z,102178.72
2022-09-01T12:17:21.881Z,102179.25
2022-09-01T12:20:43.850Z,102186.75
2022-09-01T12:24:16.396Z,102176.13
2022-09-01T12:27:38.322Z,102181.06
2022-09-01T12:31:03.034Z,102167.22
2022-09-01T12:34:39.486Z,102169.44
2022-09-01T12:38:25.803Z,102160.72
2022-09-01T12:42:01.896Z,102166.84
2022-09-01T12:45:42.326Z,102157.88
2022-09-01T12:49:19.783Z,102158.44
2022-09-01T12:52:47.283Z,102153.22
2022-09-01T12:56:32.096Z,102164.09
2022-09-01T13:00:08.083Z,102155.75
2022-09-01T13:03:30.929Z,102153.88
2022-09-01T13:07:01.958Z,102152.88
2022-09-01T13:10:25.103Z,102153.88
2022-09-01T13:13:46.986Z,102152.88
2022-09-01T13:17:13.813Z,102152.53
2022-09-01T13:20:37.305Z,102149.81
2022-09-01T13:24:00.681Z,102151.63
2022-09-01T13:27:23.403Z,102174.09
2022-09-01T13:30:49.037Z,102170.38
2022-09-01T13:34:22.042Z,102167.69
2022-09-01T13:37:45.690Z,102160.75
2022-09-01T13:41:11.677Z,102161.69
2022-09-01T13:44:34.058Z,102163.06
2022-09-01T13:51:37.595Z,102155.84
2022-09-01T13:54:59.677Z,102146.56
2022-09-01T13:58:23.070Z,102135.44
2022-09-01T14:01:46.298Z,102144.06
2022-09-01T14:05:09.085Z,102139.53
2022-09-01T14:08:33.238Z,102141.41
2022-09-01T14:11:55.795Z,102135.16
2022-09-01T14:15:25.142Z,102135.84
2022-09-01T14:18:48.739Z,102139.41
2022-09-01T14:22:11.045Z,102131.31
2022-09-01T14:25:33.439Z,102127.59
2022-09-01T14:28:55.758Z,102125.06
2022-09-01T14:32:19.003Z,102124.06
2022-09-01T14:35:43.027Z,102123.91
2022-09-01T14:39:05.466Z,102121.88
2022-09-01T14:42:29.037Z,102105.75
2022-09-01T14:45:51.930Z,102110.69
2022-09-01T14:49:21.656Z,102098.81
2022-09-01T14:52:44.703Z,102100.84
2022-09-01T14:56:07.304Z,102107.78
2022-09-01T14:59:30.049Z,102108.16
2022-09-01T15:02:52.022Z,102108.13
2022-09-01T15:06:16.258Z,102107.09
2022-09-01T15:09:38.494Z,102105.53
2022-09-01T15:13:02.082Z,102106.91
2022-09-01T15:16:26.489Z,102104.16
2022-09-01T15:19:48.398Z,102100.38
2022-09-01T15:23:12.508Z,102102.34
2022-09-01T15:26:34.956Z,102102.59
2022-09-01T15:29:57.962Z,102102.47
2022-09-01T15:33:19.846Z,102098.41
2022-09-01T15:36:44.788Z,102107.91
2022-09-01T15:40:10.130Z,102090.31
2022-09-01T15:43:32.617Z,102090.09
2022-09-01T15:46:55.013Z,102092.19
2022-09-01T15:50:21.698Z,102082.84
2022-09-01T15:53:44.467Z,102080.84
2022-09-01T15:57:09.103Z,102077.69
2022-09-01T16:00:31.338Z,102077.47
2022-09-01T16:03:54.390Z,102069.31
2022-09-01T16:07:16.454Z,102076.78
2022-09-01T16:10:42.187Z,102078.94
2022-09-01T16:14:06.111Z,102073.97
2022-09-01T16:17:42.264Z,102080.63
2022-09-01T16:21:15.841Z,102071.84
2022-09-01T16:24:43.250Z,102066.69
2022-09-01T16:28:14.014Z,102074.78
2022-09-01T16:31:37.542Z,102077.22
2022-09-01T16:35:01.588Z,102070.94
2022-09-01T16:38:34.840Z,102071.69
2022-09-01T16:42:13.471Z,102072.28
2022-09-01T16:45:44.853Z,102078.09
2022-09-01T16:49:18.122Z,102070.72
2022-09-01T16:52:58.070Z,102082.50
2022-09-01T16:56:30.495Z,102070.38
2022-09-01T16:59:55.791Z,102066.84
2022-09-01T17:03:19.971Z,102072.66
2022-09-01T17:06:52.822Z,102075.25
2022-09-01T17:10:27.629Z,102074.00
2022-09-01T17:13:51.905Z,102079.50
2022-09-01T17:17:19.085Z,102076.78
2022-09-01T17:20:42.924Z,102076.50
2022-09-01T17:24:31.992Z,102080.53
2022-09-01T17:27:59.746Z,102081.69
2022-09-01T17:31:34.515Z,102082.72
2022-09-01T17:35:07.909Z,102081.81
2022-09-01T17:38:37.242Z,102090.94
2022-09-01T17:42:07.335Z,102092.94
2022-09-01T17:45:35.134Z,102096.09
2022-09-01T17:49:08.598Z,102105.34
2022-09-01T17:52:47.438Z,102101.41
2022-09-01T17:56:36.070Z,102103.53
2022-09-01T18:00:03.710Z,102114.47
2022-09-01T18:03:51.380Z,102106.44
2022-09-01T18:07:27.994Z,102111.13
2022-09-01T18:10:55.412Z,102113.69
2022-09-01T18:14:22.139Z,102111.69
2022-09-01T18:17:49.424Z,102117.81
2022-09-01T18:21:16.073Z,102117.50
2022-09-01T18:24:46.977Z,102125.41
2022-09-01T18:28:09.385Z,102118.69
2022-09-01T18:32:00.417Z,102124.91
2022-09-01T18:35:40.082Z,102131.94
2022-09-01T18:39:08.715Z,102137.13
2022-09-01T18:42:37.738Z,102138.03
2022-09-01T18:46:04.853Z,102141.31
2022-09-01T18:49:37.381Z,102145.59
2022-09-01T18:53:13.885Z,102149.88
2022-09-01T18:56:44.966Z,102152.16
2022-09-01T19:00:18.724Z,102148.88
2022-09-01T19:03:48.811Z,102149.16
2022-09-01T19:07:22.771Z,102151.16
2022-09-01T19:10:51.632Z,102152.84
2022-09-01T19:14:25.905Z,102161.00
2022-09-01T19:18:07.162Z,102160.97
2022-09-01T19:21:32.379Z,102159.34
2022-09-01T19:25:19.424Z,102163.84
2022-09-01T19:28:48.104Z,102161.13
2022-09-01T19:32:21.100Z,102171.84
2022-09-01T19:35:46.683Z,102166.69
2022-09-01T19:39:16.757Z,102163.09
2022-09-01T19:42:43.408Z,102163.03
2022-09-01T19:46:23.241Z,102160.16
2022-09-01T19:49:54.982Z,102157.38
2022-09-01T19:53:38.973Z,102162.69
2022-09-01T19:57:14.370Z,102160.63
2022-09-01T20:00:55.150Z,102160.31
2022-09-01T20:04:34.154Z,102158.88
2022-09-01T20:08:06.319Z,102163.91
2022-09-01T20:11:40.682Z,102159.88
2022-09-01T20:15:12.057Z,102169.44
2022-09-01T20:18:40.240Z,102172.63
2022-09-01T20:22:17.351Z,102170.47
2022-09-01T20:25:43.078Z,102169.13
2022-09-01T20:29:12.151Z,102173.41
2022-09-01T20:32:42.416Z,102175.63
2022-09-01T20:36:16.630Z,102171.63
2022-09-01T20:40:02.152Z,102179.31
2022-09-01T20:43:28.865Z,102181.63
2022-09-01T20:46:52.726Z,102183.34
2022-09-01T20:50:15.791Z,102185.63
2022-09-01T20:53:55.642Z,102188.94
2022-09-01T20:57:44.842Z,102191.00
2022-09-01T21:01:19.360Z,102191.59
2022-09-01T21:04:50.970Z,102186.63
2022-09-01T21:08:31.315Z,102196.09
2022-09-01T21:12:00.688Z,102193.91
2022-09-01T21:15:34.997Z,102194.13
2022-09-01T21:19:05.105Z,102198.91
2022-09-01T21:22:29.443Z,102194.97
2022-09-01T21:25:51.639Z,102198.13
2022-09-01T21:29:31.218Z,102195.59
2022-09-01T21:32:57.228Z,102197.75
2022-09-01T21:36:19.646Z,102192.84
2022-09-01T21:39:41.614Z,102192.25
2022-09-01T21:43:07.063Z,102192.50
2022-09-01T21:46:29.264Z,102193.81
2022-09-01T21:49:52.339Z,102188.78
2022-09-01T21:53:14.918Z,102188.78
2022-09-01T21:56:36.985Z,102186.47
2022-09-01T21:59:58.911Z,102187.91
2022-09-01T22:03:21.471Z,102190.94
2022-09-01T22:06:44.647Z,102195.66
2022-09-01T22:10:07.510Z,102188.22
2022-09-01T22:13:29.101Z,102183.31
2022-09-01T22:16:51.280Z,102192.50
2022-09-01T22:20:15.443Z,102188.47
2022-09-01T22:23:40.054Z,102187.97
2022-09-01T22:27:01.770Z,102190.88
2022-09-01T22:30:23.568Z,102192.66
2022-09-01T22:33:45.424Z,102191.19
2022-09-01T22:37:07.162Z,102187.03
2022-09-01T22:40:30.498Z,102190.78
2022-09-01T22:43:52.493Z,102197.09
2022-09-01T22:47:14.327Z,102186.84
2022-09-01T22:50:39.779Z,102180.25
2022-09-01T22:54:02.067Z,102186.03
2022-09-01T22:57:25.820Z,102186.50
2022-09-01T23:00:50.900Z,102179.63
2022-09-01T23:04:15.026Z,102183.50
2022-09-01T23:07:39.793Z,102181.91
2022-09-01T23:11:01.514Z,102184.69
2022-09-01T23:14:25.332Z,102187.34
2022-09-01T23:17:47.174Z,102181.16
2022-09-01T23:21:11.769Z,102178.81
2022-09-01T23:24:33.387Z,102187.88
2022-09-01T23:27:57.287Z,102177.53
2022-09-01T23:31:22.937Z,102170.81
2022-09-01T23:34:44.410Z,102171.03
2022-09-01T23:38:06.501Z,102172.00
2022-09-01T23:41:32.088Z,102170.50
2022-09-01T23:44:54.402Z,102163.66
2022-09-01T23:48:19.215Z,102158.63
2022-09-01T23:51:41.449Z,102163.47
2022-09-01T23:55:02.903Z,102161.09
2022-09-01T23:58:26.622Z,102162.28
